createdAt,value
2022-09-09T00:01:39.536Z,22.10
2022-09-09T00:04:16.867Z,22.10
2022-09-09T00:07:03.649Z,22.11
2022-09-09T00:09:59.867Z,22.10
2022-09-09T00:13:02.150Z,22.11
2022-09-09T00:15:48.537Z,22.12
2022-09-09T00:18:48.654Z,22.09
2022-09-09T00:21:19.088Z,22.10
2022-09-09T00:23:56.875Z,22.04
2022-09-09T00:26:49.700Z,22.06
2022-09-09T00:30:00.702Z,22.10
2022-09-09T00:32:36.864Z,22.09
2022-09-09T00:35:23.228Z,22.10
2022-09-09T00:37:57.502Z,22.03
2022-09-09T00:40:36.763Z,22.02
2022-09-09T00:43:28.894Z,22.09
2022-09-09T00:46:35.154Z,22.03
2022-09-09T00:49:15.536Z,22.06
2022-09-09T00:52:10.762Z,22.08
2022-09-09T00:54:47.878Z,22.08
2022-09-09T00:57:32.661Z,22.10
2022-09-09T01:00:30.073Z,22.08
2022-09-09T01:03:23.372Z,22.06
2022-09-09T01:06:29.852Z,22.05
2022-09-09T01:09:39.568Z,21.99
2022-09-09T01:12:17.450Z,21.98
2022-09-09T01:15:24.551Z,22.02
2022-09-09T01:18:09.040Z,21.95
2022-09-09T01:21:06.281Z,22.06
2022-09-09T01:24:18.369Z,22.01
2022-09-09T01:27:07.776Z,21.72
2022-09-09T01:29:37.331Z,21.82
2022-09-09T01:32:42.956Z,21.97
2022-09-09T01:35:58.056Z,21.97
2022-09-09T01:38:34.293Z,21.99
2022-09-09T01:41:02.982Z,22.02
2022-09-09T01:43:42.815Z,22.04
2022-09-09T01:46:13.684Z,22.08
2022-09-09T01:48:46.977Z,22.10
2022-09-09T01:51:16.816Z,22.09
2022-09-09T01:53:47.973Z,22.06
2022-09-09T01:56:38.672Z,22.12
2022-09-09T01:59:34.266Z,22.11
2022-09-09T02:02:19.327Z,22.11
2022-09-09T02:05:14.117Z,22.12
2022-09-09T02:07:48.815Z,22.10
2022-09-09T02:11:07.817Z,22.04
2022-09-09T02:14:23.407Z,22.01
2022-09-09T02:17:03.207Z,21.98
2022-09-09T02:19:56.656Z,21.98
2022-09-09T02:22:37.401Z,21.94
2022-09-09T02:25:06.846Z,21.70
2022-09-09T02:27:37.055Z,21.78
2022-09-09T02:30:07.141Z,21.85
2022-09-09T02:32:50.011Z,21.85
2022-09-09T02:35:25.904Z,21.86
2022-09-09T02:37:57.948Z,21.85
2022-09-09T02:40:34.367Z,21.80
2022-09-09T02:43:05.560Z,21.80
2022-09-09T02:46:03.632Z,21.85
2022-09-09T02:49:02.843Z,21.80
2022-09-09T02:52:16.396Z,21.71
2022-09-09T02:54:44.490Z,21.69
2022-09-09T02:57:18.281Z,21.76
2022-09-09T02:59:54.233Z,21.69
2022-09-09T03:02:22.554Z,21.73
2022-09-09T03:04:57.084Z,21.72
2022-09-09T03:07:25.087Z,21.76
2022-09-09T03:09:54.992Z,21.65
2022-09-09T03:12:25.578Z,21.74
2022-09-09T03:14:53.730Z,21.72
2022-09-09T03:17:23.084Z,21.77
2022-09-09T03:19:57.016Z,21.77
2022-09-09T03:22:26.722Z,21.79
2022-09-09T03:24:56.112Z,21.78
2022-09-09T03:27:23.992Z,21.78
2022-09-09T03:29:53.992Z,21.78
2022-09-09T03:32:27.649Z,21.53
2022-09-09T03:34:58.346Z,21.61
2022-09-09T03:37:30.124Z,21.67
2022-09-09T03:40:01.142Z,21.67
2022-09-09T03:42:30.971Z,21.69
2022-09-09T03:45:00.436Z,21.70
2022-09-09T03:47:28.552Z,21.69
2022-09-09T03:50:09.698Z,21.72
2022-09-09T03:52:43.529Z,21.70
2022-09-09T03:55:17.976Z,21.70
2022-09-09T03:57:47.370Z,21.69
2022-09-09T04:00:16.555Z,21.71
2022-09-09T04:02:44.992Z,21.69
2022-09-09T04:05:17.047Z,21.68
2022-09-09T04:07:48.464Z,21.66
2022-09-09T04:10:16.840Z,21.65
2022-09-09T04:12:49.412Z,21.69
2022-09-09T04:15:19.347Z,21.67
2022-09-09T04:17:48.339Z,21.63
2022-09-09T04:20:16.516Z,21.58
2022-09-09T04:22:45.136Z,21.67
2022-09-09T04:25:14.662Z,21.68
2022-09-09T04:27:43.905Z,21.66
2022-09-09T04:30:13.279Z,21.67
2022-09-09T04:32:42.665Z,21.63
2022-09-09T04:35:12.076Z,21.66
2022-09-09T04:37:40.977Z,21.64
2022-09-09T04:40:13.166Z,21.67
2022-09-09T04:42:45.241Z,21.65
2022-09-09T04:45:16.117Z,21.59
2022-09-09T04:47:44.191Z,21.67
2022-09-09T04:50:13.288Z,21.64
2022-09-09T04:52:42.364Z,21.70
2022-09-09T04:55:10.789Z,21.62
2022-09-09T04:57:41.322Z,21.66
2022-09-09T05:00:14.802Z,21.73
2022-09-09T05:02:44.266Z,21.71
2022-09-09T05:05:13.490Z,21.75
2022-09-09T05:07:43.059Z,21.68
2022-09-09T05:10:15.391Z,21.76
2022-09-09T05:12:44.165Z,21.78
2022-09-09T05:15:12.762Z,21.81
2022-09-09T05:17:40.871Z,21.83
2022-09-09T05:20:11.882Z,21.82
2022-09-09T05:22:43.986Z,21.85
2022-09-09T05:25:12.362Z,21.87
2022-09-09T05:27:42.043Z,21.92
2022-09-09T05:30:11.833Z,21.83
2022-09-09T05:32:41.466Z,21.85
2022-09-09T05:35:10.025Z,21.95
2022-09-09T05:37:38.580Z,21.91
2022-09-09T05:40:08.579Z,21.97
2022-09-09T05:42:36.938Z,21.92
2022-09-09T05:45:09.952Z,22.00
2022-09-09T05:47:38.982Z,22.02
2022-09-09T05:50:10.127Z,22.03
2022-09-09T05:52:38.669Z,22.04
2022-09-09T05:55:10.625Z,22.12
2022-09-09T05:57:38.709Z,22.11
2022-09-09T06:00:09.466Z,22.15
2022-09-09T06:02:42.432Z,22.14
2022-09-09T06:05:16.307Z,22.18
2022-09-09T06:07:46.603Z,22.17
2022-09-09T06:10:16.155Z,22.22
2022-09-09T06:12:45.590Z,22.28
2022-09-09T06:15:14.345Z,22.34
2022-09-09T06:17:44.501Z,22.42
2022-09-09T06:20:15.813Z,22.44
2022-09-09T06:22:44.371Z,22.45
2022-09-09T06:25:13.584Z,22.56
2022-09-09T06:28:03.360Z,22.52
2022-09-09T06:31:00.818Z,22.63
2022-09-09T06:33:52.360Z,22.68
2022-09-09T06:36:28.011Z,22.75
2022-09-09T06:38:56.998Z,22.75
2022-09-09T06:41:29.032Z,22.81
2022-09-09T06:43:59.046Z,22.89
2022-09-09T06:46:37.112Z,22.85
2022-09-09T06:49:07.093Z,22.90
2022-09-09T06:51:43.687Z,22.94
2022-09-09T06:54:15.366Z,22.99
2022-09-09T06:56:48.370Z,22.98
2022-09-09T06:59:23.421Z,23.02
2022-09-09T07:01:56.633Z,23.12
2022-09-09T07:04:27.387Z,23.19
2022-09-09T07:06:55.729Z,23.22
2022-09-09T07:09:28.389Z,23.28
2022-09-09T07:11:59.339Z,23.36
2022-09-09T07:14:28.673Z,23.44
2022-09-09T07:17:01.844Z,23.55
2022-09-09T07:19:38.169Z,23.57
2022-09-09T07:22:11.722Z,23.66
2022-09-09T07:24:46.093Z,23.71
2022-09-09T07:27:16.859Z,23.81
2022-09-09T07:29:46.662Z,23.85
2022-09-09T07:32:16.860Z,23.96
2022-09-09T07:34:45.193Z,24.07
2022-09-09T07:37:14.603Z,24.12
2022-09-09T07:39:45.878Z,24.13
2022-09-09T07:42:17.442Z,24.17
2022-09-09T07:44:45.466Z,23.99
2022-09-09T07:47:17.467Z,23.80
2022-09-09T07:49:52.371Z,23.93
2022-09-09T07:52:29.029Z,23.86
2022-09-09T07:55:03.292Z,23.85
2022-09-09T07:57:35.231Z,23.91
2022-09-09T08:00:06.068Z,23.91
2022-09-09T08:02:42.103Z,23.99
2022-09-09T08:05:14.085Z,24.05
2022-09-09T08:07:42.668Z,24.08
2022-09-09T08:10:11.061Z,24.23
2022-09-09T08:13:01.539Z,24.38
2022-09-09T08:15:34.998Z,24.52
2022-09-09T08:18:04.641Z,24.68
2022-09-09T08:20:32.887Z,24.85
2022-09-09T08:23:03.122Z,24.91
2022-09-09T08:25:32.573Z,24.97
2022-09-09T08:28:02.536Z,24.94
2022-09-09T08:30:33.481Z,24.82
2022-09-09T08:33:03.378Z,24.84
2022-09-09T08:35:33.579Z,24.89
2022-09-09T08:38:04.633Z,24.89
2022-09-09T08:40:42.674Z,24.87
2022-09-09T08:43:11.264Z,24.87
2022-09-09T08:46:19.600Z,24.96
2022-09-09T08:49:04.414Z,25.10
2022-09-09T08:51:35.184Z,25.20
2022-09-09T08:54:05.523Z,25.31
2022-09-09T08:56:38.313Z,25.43
2022-09-09T08:59:15.109Z,25.53
2022-09-09T09:02:12.337Z,25.57
2022-09-09T09:05:48.320Z,25.57
2022-09-09T09:08:47.537Z,25.63
2022-09-09T09:11:17.346Z,25.64
2022-09-09T09:14:01.085Z,25.70
2022-09-09T09:16:55.187Z,25.62
2022-09-09T09:19:27.391Z,25.55
2022-09-09T09:22:42.393Z,25.55
2022-09-09T09:25:24.284Z,25.46
2022-09-09T09:28:19.260Z,25.46
2022-09-09T09:31:09.798Z,25.53
2022-09-09T09:33:42.664Z,25.66
2022-09-09T09:36:12.287Z,25.75
2022-09-09T09:41:51.097Z,25.96
2022-09-09T09:44:40.788Z,26.07
2022-09-09T09:47:23.105Z,26.07
2022-09-09T09:50:22.813Z,26.17
2022-09-09T09:53:07.676Z,26.30
2022-09-09T09:55:55.418Z,26.34
2022-09-09T09:58:26.632Z,26.36
2022-09-09T10:00:56.258Z,26.44
2022-09-09T10:03:32.417Z,26.55
2022-09-09T10:06:02.816Z,26.56
2022-09-09T10:08:34.611Z,26.58
2022-09-09T10:11:44.037Z,26.64
2022-09-09T10:14:26.457Z,26.68
2022-09-09T10:17:10.405Z,26.74
2022-09-09T10:19:42.969Z,26.67
2022-09-09T10:22:33.174Z,26.71
2022-09-09T10:25:42.804Z,26.64
2022-09-09T10:28:50.292Z,26.61
2022-09-09T10:31:45.433Z,26.62
2022-09-09T10:34:59.888Z,26.67
2022-09-09T10:37:56.937Z,26.78
2022-09-09T10:40:56.515Z,26.90
2022-09-09T10:44:15.511Z,26.96
2022-09-09T10:47:08.588Z,27.04
2022-09-09T10:50:14.976Z,27.04
2022-09-09T10:53:14.812Z,27.07
2022-09-09T10:56:05.986Z,27.14
2022-09-09T10:58:58.609Z,27.20
2022-09-09T11:01:46.320Z,27.20
2022-09-09T11:04:28.204Z,27.22
2022-09-09T11:06:57.119Z,27.19
2022-09-09T11:09:31.823Z,27.10
2022-09-09T11:12:05.757Z,27.20
2022-09-09T11:14:47.710Z,27.26
2022-09-09T11:17:25.589Z,27.37
2022-09-09T11:19:53.674Z,27.42
2022-09-09T11:23:13.229Z,27.50
2022-09-09T11:25:49.264Z,27.44
2022-09-09T11:28:38.092Z,27.50
2022-09-09T11:31:45.759Z,27.48
2022-09-09T11:34:38.452Z,27.47
2022-09-09T11:38:04.490Z,27.39
2022-09-09T11:40:35.378Z,27.33
2022-09-09T11:43:14.422Z,27.16
2022-09-09T11:45:44.742Z,27.22
2022-09-09T11:48:36.554Z,27.25
2022-09-09T11:51:34.913Z,27.25
2022-09-09T11:54:33.474Z,27.25
2022-09-09T11:57:27.629Z,27.26
2022-09-09T11:59:56.782Z,27.23
2022-09-09T12:02:33.311Z,27.35
2022-09-09T12:05:11.153Z,27.32
2022-09-09T12:07:50.714Z,27.49
2022-09-09T12:10:39.052Z,27.59
2022-09-09T12:13:26.924Z,27.64
2022-09-09T12:15:59.400Z,27.70
2022-09-09T12:18:38.246Z,27.78
2022-09-09T12:21:39.027Z,27.96
2022-09-09T12:24:43.140Z,28.07
2022-09-09T12:27:34.082Z,28.13
2022-09-09T12:30:12.017Z,28.11
2022-09-09T12:32:41.141Z,28.06
2022-09-09T12:35:31.901Z,28.01
2022-09-09T12:38:05.973Z,27.81
2022-09-09T12:40:40.253Z,27.59
2022-09-09T12:43:24.437Z,27.33
2022-09-09T12:46:08.717Z,27.06
2022-09-09T12:48:45.753Z,26.87
2022-09-09T12:51:35.744Z,26.67
2022-09-09T12:54:05.635Z,26.46
2022-09-09T12:56:35.205Z,26.36
2022-09-09T12:59:05.407Z,26.19
2022-09-09T13:01:35.154Z,26.13
2022-09-09T13:04:21.138Z,26.05
2022-09-09T13:06:51.025Z,25.96
2022-09-09T13:09:21.142Z,25.92
2022-09-09T13:12:00.681Z,25.94
2022-09-09T13:14:33.824Z,25.92
2022-09-09T13:17:08.285Z,25.80
2022-09-09T13:19:39.675Z,25.64
2022-09-09T13:22:34.238Z,25.55
2022-09-09T13:25:29.571Z,25.55
2022-09-09T13:28:04.783Z,25.63
2022-09-09T13:30:42.599Z,25.72
2022-09-09T13:33:15.818Z,25.82
2022-09-09T13:35:56.822Z,25.94
2022-09-09T13:38:28.010Z,25.95
2022-09-09T13:41:05.641Z,26.01
2022-09-09T13:43:44.504Z,26.04
2022-09-09T13:46:44.592Z,26.12
2022-09-09T13:49:12.570Z,26.17
2022-09-09T13:51:55.600Z,26.23
2022-09-09T13:54:24.099Z,26.16
2022-09-09T13:56:52.402Z,26.17
2022-09-09T13:59:21.466Z,26.16
2022-09-09T14:01:53.511Z,26.15
2022-09-09T14:04:25.026Z,26.12
2022-09-09T14:06:52.878Z,26.08
2022-09-09T14:09:20.943Z,26.07
2022-09-09T14:11:48.893Z,25.95
2022-09-09T14:14:18.124Z,25.89
2022-09-09T14:16:46.454Z,25.86
2022-09-09T14:19:15.145Z,25.79
2022-09-09T14:21:43.880Z,25.79
2022-09-09T14:24:13.006Z,25.80
2022-09-09T14:26:43.553Z,25.79
2022-09-09T14:29:14.666Z,25.86
2022-09-09T14:31:43.653Z,25.92
2022-09-09T14:34:12.182Z,25.93
2022-09-09T14:36:42.521Z,26.05
2022-09-09T14:39:12.274Z,26.10
2022-09-09T14:41:41.101Z,26.17
2022-09-09T14:44:09.845Z,26.14
2022-09-09T14:46:37.627Z,26.19
2022-09-09T14:49:05.823Z,26.21
2022-09-09T14:51:34.420Z,26.25
2022-09-09T14:54:03.479Z,26.29
2022-09-09T14:56:37.531Z,26.42
2022-09-09T14:59:07.352Z,26.43
2022-09-09T15:01:36.180Z,26.45
2022-09-09T15:04:07.011Z,26.42
2022-09-09T15:06:40.621Z,26.38
2022-09-09T15:09:09.947Z,26.28
2022-09-09T15:11:39.509Z,26.17
2022-09-09T15:14:10.305Z,26.11
2022-09-09T15:16:41.534Z,26.01
2022-09-09T15:19:11.729Z,25.97
2022-09-09T15:21:40.152Z,25.96
2022-09-09T15:24:09.663Z,26.01
2022-09-09T15:26:42.301Z,25.91
2022-09-09T15:29:10.759Z,26.01
2022-09-09T15:31:38.910Z,26.08
2022-09-09T15:34:09.232Z,26.12
2022-09-09T15:36:41.304Z,26.18
2022-09-09T15:39:16.799Z,26.22
2022-09-09T15:41:49.825Z,26.23
2022-09-09T15:44:18.263Z,26.22
2022-09-09T15:46:50.976Z,26.20
2022-09-09T15:49:27.275Z,26.18
2022-09-09T15:52:03.606Z,26.14
2022-09-09T15:54:40.278Z,26.12
2022-09-09T15:57:13.784Z,26.06
2022-09-09T15:59:41.710Z,25.95
2022-09-09T16:02:13.079Z,25.97
2022-09-09T16:04:41.568Z,25.90
2022-09-09T16:07:10.375Z,25.86
2022-09-09T16:09:38.727Z,25.81
2022-09-09T16:12:10.911Z,25.72
2022-09-09T16:14:40.094Z,25.64
2022-09-09T16:17:09.450Z,25.56
2022-09-09T16:19:37.454Z,25.52
2022-09-09T16:22:07.854Z,25.47
2022-09-09T16:24:36.246Z,25.37
2022-09-09T16:27:05.086Z,25.38
2022-09-09T16:29:34.582Z,25.23
2022-09-09T16:32:04.553Z,25.27
2022-09-09T16:34:34.892Z,25.25
2022-09-09T16:37:03.142Z,25.15
2022-09-09T16:39:31.039Z,25.14
2022-09-09T16:41:58.837Z,25.09
2022-09-09T16:44:27.154Z,24.98
2022-09-09T16:47:00.470Z,24.92
2022-09-09T16:49:29.449Z,24.95
2022-09-09T16:52:00.527Z,24.89
2022-09-09T16:54:30.877Z,24.74
2022-09-09T16:57:00.627Z,24.63
2022-09-09T16:59:28.856Z,24.44
2022-09-09T17:01:56.910Z,24.48
2022-09-09T17:04:29.031Z,24.43
2022-09-09T17:07:01.534Z,24.38
2022-09-09T17:09:30.436Z,24.06
2022-09-09T17:11:58.564Z,24.15
2022-09-09T17:14:26.566Z,24.20
2022-09-09T17:16:54.569Z,24.22
2022-09-09T17:19:22.974Z,24.20
2022-09-09T17:22:15.482Z,24.07
2022-09-09T17:24:41.480Z,24.13
2022-09-09T17:27:10.543Z,24.10
2022-09-09T17:29:38.968Z,24.05
2022-09-09T17:32:08.571Z,24.02
2022-09-09T17:34:38.027Z,23.94
2022-09-09T17:37:07.316Z,23.90
2022-09-09T17:39:35.696Z,23.82
2022-09-09T17:42:04.661Z,23.77
2022-09-09T17:44:33.643Z,23.75
2022-09-09T17:47:05.061Z,23.67
2022-09-09T17:49:33.086Z,23.60
2022-09-09T17:52:01.395Z,23.57
2022-09-09T17:54:29.440Z,23.44
2022-09-09T17:57:00.323Z,23.40
2022-09-09T17:59:30.089Z,23.31
2022-09-09T18:01:58.265Z,23.26
2022-09-09T18:04:26.443Z,23.19
2022-09-09T18:06:55.798Z,23.17
2022-09-09T18:09:26.589Z,23.13
2022-09-09T18:11:58.625Z,23.06
2022-09-09T18:14:34.541Z,23.02
2022-09-09T18:17:04.754Z,22.89
2022-09-09T18:19:33.555Z,22.95
2022-09-09T18:22:05.526Z,22.94
2022-09-09T18:24:36.743Z,22.91
2022-09-09T18:27:05.183Z,22.90
2022-09-09T18:29:33.668Z,22.90
2022-09-09T18:32:02.055Z,22.85
2022-09-09T18:34:31.096Z,22.81
2022-09-09T18:36:59.501Z,22.84
2022-09-09T18:39:29.689Z,22.75
2022-09-09T18:42:01.662Z,22.85
2022-09-09T18:44:34.754Z,22.83
2022-09-09T18:47:03.747Z,22.82
2022-09-09T18:49:33.424Z,22.79
2022-09-09T18:52:02.738Z,22.81
2022-09-09T18:54:34.366Z,22.85
2022-09-09T18:57:02.609Z,22.80
2022-09-09T18:59:32.313Z,22.85
2022-09-09T19:02:00.957Z,22.80
2022-09-09T19:04:31.917Z,22.83
2022-09-09T19:07:00.413Z,22.79
2022-09-09T19:09:34.361Z,22.86
2022-09-09T19:12:04.602Z,22.79
2022-09-09T19:14:33.910Z,22.88
2022-09-09T19:17:02.888Z,22.87
2022-09-09T19:19:33.369Z,22.87
2022-09-09T19:22:03.084Z,22.70
2022-09-09T19:24:35.369Z,22.54
2022-09-09T19:27:07.242Z,22.32
2022-09-09T19:29:39.646Z,22.10
2022-09-09T19:32:42.702Z,22.00
2022-09-09T19:34:57.844Z,21.85
2022-09-09T19:37:25.900Z,21.79
2022-09-09T19:39:54.625Z,21.71
2022-09-09T19:42:24.461Z,21.63
2022-09-09T19:44:52.798Z,21.56
2022-09-09T19:47:24.208Z,21.65
2022-09-09T19:49:53.832Z,21.61
2022-09-09T19:52:24.314Z,21.59
2022-09-09T19:54:54.571Z,21.57
2022-09-09T19:57:24.132Z,21.53
2022-09-09T19:59:52.104Z,21.49
2022-09-09T20:02:20.856Z,21.55
2022-09-09T20:04:49.762Z,21.44
2022-09-09T20:07:19.274Z,21.52
2022-09-09T20:09:47.395Z,21.49
2022-09-09T20:12:17.051Z,21.48
2022-09-09T20:14:47.026Z,21.43
2022-09-09T20:17:15.248Z,21.37
2022-09-09T20:19:45.173Z,21.34
2022-09-09T20:22:14.846Z,21.29
2022-09-09T20:24:44.338Z,21.28
2022-09-09T20:27:13.277Z,21.23
2022-09-09T20:29:41.752Z,21.18
2022-09-09T20:32:12.719Z,21.15
2022-09-09T20:34:42.386Z,21.04
2022-09-09T20:37:13.737Z,21.11
2022-09-09T20:39:42.966Z,21.07
2022-09-09T20:42:11.626Z,21.10
2022-09-09T20:44:40.182Z,21.13
2022-09-09T20:47:09.612Z,21.16
2022-09-09T20:49:37.826Z,21.14
2022-09-09T20:52:06.939Z,21.20
2022-09-09T20:54:35.996Z,21.21
2022-09-09T20:57:06.579Z,21.23
2022-09-09T20:59:37.779Z,21.13
2022-09-09T21:02:06.615Z,21.16
2022-09-09T21:04:36.030Z,21.13
2022-09-09T21:07:04.675Z,21.16
2022-09-09T21:09:32.561Z,21.26
2022-09-09T21:12:00.448Z,21.28
2022-09-09T21:14:28.252Z,21.17
2022-09-09T21:16:56.076Z,21.23
2022-09-09T21:19:25.096Z,21.20
2022-09-09T21:21:52.995Z,21.20
2022-09-09T21:24:20.873Z,21.23
2022-09-09T21:26:49.511Z,21.25
2022-09-09T21:29:18.224Z,21.27
2022-09-09T21:31:46.505Z,21.27
2022-09-09T21:34:15.349Z,21.27
2022-09-09T21:36:43.081Z,21.27
2022-09-09T21:39:11.045Z,21.16
2022-09-09T21:41:39.049Z,21.23
2022-09-09T21:44:08.265Z,21.25
2022-09-09T21:46:37.490Z,21.29
2022-09-09T21:49:05.548Z,21.32
2022-09-09T21:51:33.611Z,21.30
2022-09-09T21:54:02.005Z,21.28
2022-09-09T21:56:30.173Z,21.33
2022-09-09T21:59:09.842Z,21.21
2022-09-09T22:01:40.614Z,21.23
2022-09-09T22:04:09.637Z,21.17
2022-09-09T22:06:40.073Z,21.13
2022-09-09T22:09:08.116Z,21.05
2022-09-09T22:11:36.249Z,21.07
2022-09-09T22:14:05.142Z,21.05
2022-09-09T22:16:33.785Z,21.00
2022-09-09T22:19:03.939Z,20.89
2022-09-09T22:21:33.387Z,20.99
2022-09-09T22:24:05.188Z,20.95
2022-09-09T22:26:37.022Z,20.93
2022-09-09T22:29:06.841Z,20.93
2022-09-09T22:31:37.008Z,20.95
2022-09-09T22:34:06.761Z,20.81
2022-09-09T22:36:35.877Z,20.86
2022-09-09T22:39:05.544Z,20.83
2022-09-09T22:41:33.910Z,20.78
2022-09-09T22:44:02.667Z,20.75
2022-09-09T22:46:30.502Z,20.69
2022-09-09T22:48:59.346Z,20.67
2022-09-09T22:51:28.813Z,20.61
2022-09-09T22:53:58.619Z,20.59
2022-09-09T22:56:28.798Z,20.63
2022-09-09T22:58:57.648Z,20.66
2022-09-09T23:01:27.874Z,20.67
2022-09-09T23:04:03.002Z,20.60
2022-09-09T23:06:32.136Z,20.67
2022-09-09T23:09:02.807Z,20.68
2022-09-09T23:11:35.282Z,20.72
2022-09-09T23:14:06.590Z,20.74
2022-09-09T23:16:38.373Z,20.48
2022-09-09T23:19:10.183Z,20.35
2022-09-09T23:21:40.726Z,20.58
2022-09-09T23:24:15.051Z,20.39
2022-09-09T23:26:45.894Z,20.55
2022-09-09T23:29:14.906Z,20.60
2022-09-09T23:31:45.833Z,20.66
2022-09-09T23:34:14.785Z,20.64
2022-09-09T23:36:42.760Z,20.57
2022-09-09T23:39:13.281Z,20.63
2022-09-09T23:41:41.405Z,20.52
2022-09-09T23:44:10.445Z,20.56
2022-09-09T23:46:38.992Z,20.56
2022-09-09T23:49:10.345Z,20.57
2022-09-09T23:51:38.526Z,20.49
2022-09-09T23:54:07.019Z,20.59
2022-09-09T23:56:39.741Z,20.60
2022-09-09T23:59:08.834Z,20.58
